sensor_id;sensor_type;location;lat;lon;timestamp;temperature;humidity
65040;HTU21D;51606;45.000;38.612;2023-02-11T00:00:19;-4.73;77.53
65040;HTU21D;51606;45.000;38.612;2023-02-11T00:02:45;-4.76;77.58
65040;HTU21D;51606;45.000;38.612;2023-02-11T00:05:11;-4.76;77.63
65040;HTU21D;51606;45.000;38.612;2023-02-11T00:07:38;-4.79;77.66
65040;HTU21D;51606;45.000;38.612;2023-02-11T00:10:05;-4.80;77.65
65040;HTU21D;51606;45.000;38.612;2023-02-11T00:12:35;-4.79;77.67
65040;HTU21D;51606;45.000;38.612;2023-02-11T00:15:02;-4.80;77.66
65040;HTU21D;51606;45.000;38.612;2023-02-11T00:17:28;-4.80;77.67
65040;HTU21D;51606;45.000;38.612;2023-02-11T00:19:55;-4.80;77.68
65040;HTU21D;51606;45.000;38.612;2023-02-11T00:22:21;-4.80;77.69
65040;HTU21D;51606;45.000;38.612;2023-02-11T00:24:47;-4.80;77.67
65040;HTU21D;51606;45.000;38.612;2023-02-11T00:27:14;-4.79;77.67
65040;HTU21D;51606;45.000;38.612;2023-02-11T00:29:40;-4.78;77.65
65040;HTU21D;51606;45.000;38.612;2023-02-11T00:32:08;-4.76;77.64
65040;HTU21D;51606;45.000;38.612;2023-02-11T00:34:35;-4.75;77.62
65040;HTU21D;51606;45.000;38.612;2023-02-11T00:37:03;-4.75;77.62
65040;HTU21D;51606;45.000;38.612;2023-02-11T00:39:30;-4.76;77.62
65040;HTU21D;51606;45.000;38.612;2023-02-11T00:41:57;-4.76;77.64
65040;HTU21D;51606;45.000;38.612;2023-02-11T00:44:23;-4.74;77.63
65040;HTU21D;51606;45.000;38.612;2023-02-11T00:46:50;-4.74;77.63
65040;HTU21D;51606;45.000;38.612;2023-02-11T00:49:16;-4.74;77.63
65040;HTU21D;51606;45.000;38.612;2023-02-11T00:51:43;-4.72;77.62
65040;HTU21D;51606;45.000;38.612;2023-02-11T00:54:10;-4.72;77.62
65040;HTU21D;51606;45.000;38.612;2023-02-11T00:56:38;-4.72;77.60
65040;HTU21D;51606;45.000;38.612;2023-02-11T00:59:04;-4.72;77.63
65040;HTU21D;51606;45.000;38.612;2023-02-11T01:01:31;-4.73;77.63
65040;HTU21D;51606;45.000;38.612;2023-02-11T01:03:57;-4.71;77.63
65040;HTU21D;51606;45.000;38.612;2023-02-11T01:06:23;-4.72;77.62
65040;HTU21D;51606;45.000;38.612;2023-02-11T01:08:50;-4.71;77.63
65040;HTU21D;51606;45.000;38.612;2023-02-11T01:11:18;-4.70;77.63
65040;HTU21D;51606;45.000;38.612;2023-02-11T01:13:46;-4.69;77.61
65040;HTU21D;51606;45.000;38.612;2023-02-11T01:16:14;-4.69;77.60
65040;HTU21D;51606;45.000;38.612;2023-02-11T01:18:41;-4.67;77.60
65040;HTU21D;51606;45.000;38.612;2023-02-11T01:21:09;-4.67;77.61
65040;HTU21D;51606;45.000;38.612;2023-02-11T01:23:36;-4.66;77.61
65040;HTU21D;51606;45.000;38.612;2023-02-11T01:26:04;-4.65;77.57
65040;HTU21D;51606;45.000;38.612;2023-02-11T01:28:31;-4.64;77.59
65040;HTU21D;51606;45.000;38.612;2023-02-11T01:31:00;-4.65;77.60
65040;HTU21D;51606;45.000;38.612;2023-02-11T01:33:27;-4.65;77.59
65040;HTU21D;51606;45.000;38.612;2023-02-11T01:35:54;-4.63;77.59
65040;HTU21D;51606;45.000;38.612;2023-02-11T01:38:22;-4.64;77.61
65040;HTU21D;51606;45.000;38.612;2023-02-11T01:41:01;-4.64;77.60
65040;HTU21D;51606;45.000;38.612;2023-02-11T01:43:37;-4.64;77.60
65040;HTU21D;51606;45.000;38.612;2023-02-11T01:46:11;-4.71;77.72
65040;HTU21D;51606;45.000;38.612;2023-02-11T01:48:46;-4.67;77.58
65040;HTU21D;51606;45.000;38.612;2023-02-11T01:54:05;-4.66;77.65
65040;HTU21D;51606;45.000;38.612;2023-02-11T01:56:53;-4.65;77.66
65040;HTU21D;51606;45.000;38.612;2023-02-11T02:00:03;-4.66;77.61
65040;HTU21D;51606;45.000;38.612;2023-02-11T02:08:04;-4.63;77.65
65040;HTU21D;51606;45.000;38.612;2023-02-11T02:10:33;-4.64;77.68
65040;HTU21D;51606;45.000;38.612;2023-02-11T02:13:00;-4.64;77.69
65040;HTU21D;51606;45.000;38.612;2023-02-11T02:15:28;-4.63;77.69
65040;HTU21D;51606;45.000;38.612;2023-02-11T02:18:51;-4.64;77.65
65040;HTU21D;51606;45.000;38.612;2023-02-11T02:21:20;-4.60;77.66
65040;HTU21D;51606;45.000;38.612;2023-02-11T02:32:36;-4.61;77.72
65040;HTU21D;51606;45.000;38.612;2023-02-11T02:40:25;-4.57;77.68
65040;HTU21D;51606;45.000;38.612;2023-02-11T02:42:54;-4.55;77.69
65040;HTU21D;51606;45.000;38.612;2023-02-11T02:45:21;-4.55;77.70
65040;HTU21D;51606;45.000;38.612;2023-02-11T02:47:47;-4.53;77.70
65040;HTU21D;51606;45.000;38.612;2023-02-11T02:50:17;-4.51;77.66
65040;HTU21D;51606;45.000;38.612;2023-02-11T02:58:30;-4.54;77.66
65040;HTU21D;51606;45.000;38.612;2023-02-11T03:06:59;-4.52;77.80
65040;HTU21D;51606;45.000;38.612;2023-02-11T03:09:44;-4.52;77.76
65040;HTU21D;51606;45.000;38.612;2023-02-11T03:12:12;-4.48;77.78
65040;HTU21D;51606;45.000;38.612;2023-02-11T03:14:40;-4.46;77.74
65040;HTU21D;51606;45.000;38.612;2023-02-11T03:17:07;-4.45;77.72
65040;HTU21D;51606;45.000;38.612;2023-02-11T03:19:42;-4.45;77.68
65040;HTU21D;51606;45.000;38.612;2023-02-11T03:22:21;-4.48;77.69
65040;HTU21D;51606;45.000;38.612;2023-02-11T03:24:50;-4.46;77.79
65040;HTU21D;51606;45.000;38.612;2023-02-11T03:29:55;-4.46;77.79
65040;HTU21D;51606;45.000;38.612;2023-02-11T03:32:31;-4.49;77.84
65040;HTU21D;51606;45.000;38.612;2023-02-11T03:37:37;-4.45;77.85
65040;HTU21D;51606;45.000;38.612;2023-02-11T03:40:09;-4.44;77.80
65040;HTU21D;51606;45.000;38.612;2023-02-11T03:42:58;-4.48;77.76
65040;HTU21D;51606;45.000;38.612;2023-02-11T03:56:54;-4.58;77.90
65040;HTU21D;51606;45.000;38.612;2023-02-11T03:59:22;-4.63;77.99
65040;HTU21D;51606;45.000;38.612;2023-02-11T04:01:48;-4.63;78.05
65040;HTU21D;51606;45.000;38.612;2023-02-11T04:04:15;-4.63;78.03
65040;HTU21D;51606;45.000;38.612;2023-02-11T04:06:41;-4.63;78.08
65040;HTU21D;51606;45.000;38.612;2023-02-11T04:09:09;-4.63;78.05
65040;HTU21D;51606;45.000;38.612;2023-02-11T04:11:35;-4.64;78.03
65040;HTU21D;51606;45.000;38.612;2023-02-11T04:14:02;-4.63;78.08
65040;HTU21D;51606;45.000;38.612;2023-02-11T04:16:28;-4.61;78.05
65040;HTU21D;51606;45.000;38.612;2023-02-11T04:18:56;-4.58;78.04
65040;HTU21D;51606;45.000;38.612;2023-02-11T04:21:23;-4.57;77.97
65040;HTU21D;51606;45.000;38.612;2023-02-11T04:23:49;-4.56;77.95
65040;HTU21D;51606;45.000;38.612;2023-02-11T04:26:15;-4.56;77.96
65040;HTU21D;51606;45.000;38.612;2023-02-11T04:28:41;-4.58;77.98
65040;HTU21D;51606;45.000;38.612;2023-02-11T04:31:08;-4.56;78.01
65040;HTU21D;51606;45.000;38.612;2023-02-11T04:33:36;-4.53;78.01
65040;HTU21D;51606;45.000;38.612;2023-02-11T04:36:02;-4.51;77.97
65040;HTU21D;51606;45.000;38.612;2023-02-11T04:38:28;-4.49;77.95
65040;HTU21D;51606;45.000;38.612;2023-02-11T04:40:56;-4.45;77.90
65040;HTU21D;51606;45.000;38.612;2023-02-11T04:43:23;-4.40;77.89
65040;HTU21D;51606;45.000;38.612;2023-02-11T04:45:49;-4.37;77.83
65040;HTU21D;51606;45.000;38.612;2023-02-11T04:48:15;-4.34;77.78
65040;HTU21D;51606;45.000;38.612;2023-02-11T04:50:41;-4.29;77.76
65040;HTU21D;51606;45.000;38.612;2023-02-11T04:53:08;-4.24;77.71
65040;HTU21D;51606;45.000;38.612;2023-02-11T04:55:34;-4.20;77.69
65040;HTU21D;51606;45.000;38.612;2023-02-11T04:58:01;-4.14;77.64
65040;HTU21D;51606;45.000;38.612;2023-02-11T05:00:27;-4.10;77.59
65040;HTU21D;51606;45.000;38.612;2023-02-11T05:02:54;-4.09;77.56
65040;HTU21D;51606;45.000;38.612;2023-02-11T05:05:20;-4.05;77.58
65040;HTU21D;51606;45.000;38.612;2023-02-11T05:07:46;-4.05;77.60
65040;HTU21D;51606;45.000;38.612;2023-02-11T05:10:13;-4.02;77.66
65040;HTU21D;51606;45.000;38.612;2023-02-11T05:12:39;-3.98;77.68
65040;HTU21D;51606;45.000;38.612;2023-02-11T05:15:06;-3.92;77.66
65040;HTU21D;51606;45.000;38.612;2023-02-11T05:17:32;-3.89;77.64
65040;HTU21D;51606;45.000;38.612;2023-02-11T05:19:59;-3.84;77.62
65040;HTU21D;51606;45.000;38.612;2023-02-11T05:22:25;-3.80;77.61
65040;HTU21D;51606;45.000;38.612;2023-02-11T05:24:51;-3.75;77.63
65040;HTU21D;51606;45.000;38.612;2023-02-11T05:27:18;-3.69;77.60
65040;HTU21D;51606;45.000;38.612;2023-02-11T05:29:44;-3.64;77.55
65040;HTU21D;51606;45.000;38.612;2023-02-11T05:32:11;-3.60;77.53
65040;HTU21D;51606;45.000;38.612;2023-02-11T05:34:37;-3.55;77.53
65040;HTU21D;51606;45.000;38.612;2023-02-11T05:37:03;-3.49;77.56
65040;HTU21D;51606;45.000;38.612;2023-02-11T05:39:29;-3.42;77.50
65040;HTU21D;51606;45.000;38.612;2023-02-11T05:41:56;-3.34;77.46
65040;HTU21D;51606;45.000;38.612;2023-02-11T05:44:22;-3.25;77.43
65040;HTU21D;51606;45.000;38.612;2023-02-11T05:46:48;-3.17;77.37
65040;HTU21D;51606;45.000;38.612;2023-02-11T05:49:16;-3.12;77.31
65040;HTU21D;51606;45.000;38.612;2023-02-11T05:51:42;-3.06;77.27
65040;HTU21D;51606;45.000;38.612;2023-02-11T05:54:08;-3.00;77.30
65040;HTU21D;51606;45.000;38.612;2023-02-11T05:56:35;-2.89;77.27
65040;HTU21D;51606;45.000;38.612;2023-02-11T05:59:02;-2.84;77.17
65040;HTU21D;51606;45.000;38.612;2023-02-11T06:01:28;-2.75;77.27
65040;HTU21D;51606;45.000;38.612;2023-02-11T06:03:55;-2.66;77.13
65040;HTU21D;51606;45.000;38.612;2023-02-11T06:06:21;-2.61;77.07
65040;HTU21D;51606;45.000;38.612;2023-02-11T06:08:48;-2.57;77.06
65040;HTU21D;51606;45.000;38.612;2023-02-11T06:11:15;-2.56;77.21
65040;HTU21D;51606;45.000;38.612;2023-02-11T06:13:42;-2.43;77.25
65040;HTU21D;51606;45.000;38.612;2023-02-11T06:16:08;-2.34;76.93
65040;HTU21D;51606;45.000;38.612;2023-02-11T06:18:34;-2.31;77.17
65040;HTU21D;51606;45.000;38.612;2023-02-11T06:21:05;-2.13;77.07
65040;HTU21D;51606;45.000;38.612;2023-02-11T06:23:31;-1.93;76.83
65040;HTU21D;51606;45.000;38.612;2023-02-11T06:26:01;-1.80;76.77
65040;HTU21D;51606;45.000;38.612;2023-02-11T06:28:28;-1.65;76.68
65040;HTU21D;51606;45.000;38.612;2023-02-11T06:30:56;-1.58;76.60
65040;HTU21D;51606;45.000;38.612;2023-02-11T06:33:23;-1.60;76.70
65040;HTU21D;51606;45.000;38.612;2023-02-11T06:35:49;-1.63;76.95
65040;HTU21D;51606;45.000;38.612;2023-02-11T06:38:16;-1.56;77.06
65040;HTU21D;51606;45.000;38.612;2023-02-11T06:40:47;-1.48;76.79
65040;HTU21D;51606;45.000;38.612;2023-02-11T06:43:14;-1.46;76.86
65040;HTU21D;51606;45.000;38.612;2023-02-11T06:45:40;-1.38;77.01
65040;HTU21D;51606;45.000;38.612;2023-02-11T06:48:07;-1.20;76.84
65040;HTU21D;51606;45.000;38.612;2023-02-11T06:50:34;-1.06;76.70
65040;HTU21D;51606;45.000;38.612;2023-02-11T06:53:00;-1.00;76.50
65040;HTU21D;51606;45.000;38.612;2023-02-11T06:55:27;-1.01;76.63
65040;HTU21D;51606;45.000;38.612;2023-02-11T06:57:53;-1.02;76.80
65040;HTU21D;51606;45.000;38.612;2023-02-11T07:00:20;-0.96;76.89
65040;HTU21D;51606;45.000;38.612;2023-02-11T07:02:46;-0.88;76.66
65040;HTU21D;51606;45.000;38.612;2023-02-11T07:05:12;-0.93;76.78
65040;HTU21D;51606;45.000;38.612;2023-02-11T07:07:39;-0.90;77.01
65040;HTU21D;51606;45.000;38.612;2023-02-11T07:10:05;-0.86;76.82
65040;HTU21D;51606;45.000;38.612;2023-02-11T07:12:32;-0.97;76.79
65040;HTU21D;51606;45.000;38.612;2023-02-11T07:14:58;-1.12;76.95
65040;HTU21D;51606;45.000;38.612;2023-02-11T07:17:25;-1.16;77.07
65040;HTU21D;51606;45.000;38.612;2023-02-11T07:19:51;-1.20;77.21
65040;HTU21D;51606;45.000;38.612;2023-02-11T07:22:17;-1.12;77.40
65040;HTU21D;51606;45.000;38.612;2023-02-11T07:24:44;-0.95;77.11
65040;HTU21D;51606;45.000;38.612;2023-02-11T07:27:10;-0.82;76.86
65040;HTU21D;51606;45.000;38.612;2023-02-11T07:29:36;-0.70;76.79
65040;HTU21D;51606;45.000;38.612;2023-02-11T07:32:03;-0.54;76.69
65040;HTU21D;51606;45.000;38.612;2023-02-11T07:34:30;-0.39;76.56
65040;HTU21D;51606;45.000;38.612;2023-02-11T07:36:56;-0.29;76.51
65040;HTU21D;51606;45.000;38.612;2023-02-11T07:39:23;-0.22;76.45
65040;HTU21D;51606;45.000;38.612;2023-02-11T07:41:55;-0.14;76.47
65040;HTU21D;51606;45.000;38.612;2023-02-11T07:44:23;-0.08;76.47
65040;HTU21D;51606;45.000;38.612;2023-02-11T07:46:49;-0.01;76.54
65040;HTU21D;51606;45.000;38.612;2023-02-11T07:49:15;0.04;76.60
65040;HTU21D;51606;45.000;38.612;2023-02-11T07:51:42;0.08;76.57
65040;HTU21D;51606;45.000;38.612;2023-02-11T07:54:10;0.12;76.63
65040;HTU21D;51606;45.000;38.612;2023-02-11T07:56:37;0.14;76.79
65040;HTU21D;51606;45.000;38.612;2023-02-11T07:59:03;0.13;76.67
65040;HTU21D;51606;45.000;38.612;2023-02-11T08:01:30;0.01;76.89
65040;HTU21D;51606;45.000;38.612;2023-02-11T08:03:58;-0.10;77.14
65040;HTU21D;51606;45.000;38.612;2023-02-11T08:06:28;-0.21;77.23
65040;HTU21D;51606;45.000;38.612;2023-02-11T08:08:55;-0.28;77.24
65040;HTU21D;51606;45.000;38.612;2023-02-11T08:11:24;-0.34;77.43
65040;HTU21D;51606;45.000;38.612;2023-02-11T08:13:51;-0.20;77.34
65040;HTU21D;51606;45.000;38.612;2023-02-11T08:18:47;0.14;76.69
65040;HTU21D;51606;45.000;38.612;2023-02-11T08:21:14;0.14;76.34
65040;HTU21D;51606;45.000;38.612;2023-02-11T08:23:42;0.14;76.57
65040;HTU21D;51606;45.000;38.612;2023-02-11T08:26:12;0.04;76.28
65040;HTU21D;51606;45.000;38.612;2023-02-11T08:28:41;-0.07;76.34
65040;HTU21D;51606;45.000;38.612;2023-02-11T08:31:10;-0.27;76.65
65040;HTU21D;51606;45.000;38.612;2023-02-11T08:33:37;-0.35;77.15
65040;HTU21D;51606;45.000;38.612;2023-02-11T08:36:16;-0.22;76.86
65040;HTU21D;51606;45.000;38.612;2023-02-11T08:38:43;-0.17;76.69
65040;HTU21D;51606;45.000;38.612;2023-02-11T08:41:09;-0.13;76.65
65040;HTU21D;51606;45.000;38.612;2023-02-11T08:43:37;-0.16;76.65
65040;HTU21D;51606;45.000;38.612;2023-02-11T08:46:07;-0.07;76.66
65040;HTU21D;51606;45.000;38.612;2023-02-11T08:48:34;-0.09;76.37
65040;HTU21D;51606;45.000;38.612;2023-02-11T08:51:05;-0.07;76.70
65040;HTU21D;51606;45.000;38.612;2023-02-11T08:53:33;0.09;76.50
65040;HTU21D;51606;45.000;38.612;2023-02-11T08:56:00;0.21;76.27
65040;HTU21D;51606;45.000;38.612;2023-02-11T08:58:27;0.30;76.18
65040;HTU21D;51606;45.000;38.612;2023-02-11T09:00:53;0.42;76.08
65040;HTU21D;51606;45.000;38.612;2023-02-11T09:03:19;0.49;75.99
65040;HTU21D;51606;45.000;38.612;2023-02-11T09:05:48;0.57;75.89
65040;HTU21D;51606;45.000;38.612;2023-02-11T09:08:22;0.58;75.95
65040;HTU21D;51606;45.000;38.612;2023-02-11T09:10:48;0.61;75.95
65040;HTU21D;51606;45.000;38.612;2023-02-11T09:13:15;0.72;75.91
65040;HTU21D;51606;45.000;38.612;2023-02-11T09:15:44;0.72;75.86
65040;HTU21D;51606;45.000;38.612;2023-02-11T09:18:11;0.63;76.02
65040;HTU21D;51606;45.000;38.612;2023-02-11T09:20:38;0.50;76.12
65040;HTU21D;51606;45.000;38.612;2023-02-11T09:23:04;0.45;76.53
65040;HTU21D;51606;45.000;38.612;2023-02-11T09:25:30;0.54;76.51
65040;HTU21D;51606;45.000;38.612;2023-02-11T09:27:57;0.65;76.30
65040;HTU21D;51606;45.000;38.612;2023-02-11T09:30:23;0.71;76.19
65040;HTU21D;51606;45.000;38.612;2023-02-11T09:32:50;0.75;76.03
65040;HTU21D;51606;45.000;38.612;2023-02-11T09:35:16;0.73;76.00
65040;HTU21D;51606;45.000;38.612;2023-02-11T09:37:43;0.75;76.12
65040;HTU21D;51606;45.000;38.612;2023-02-11T09:40:10;0.81;76.03
65040;HTU21D;51606;45.000;38.612;2023-02-11T09:42:59;0.88;76.02
65040;HTU21D;51606;45.000;38.612;2023-02-11T09:45:28;0.94;75.95
65040;HTU21D;51606;45.000;38.612;2023-02-11T09:48:02;1.03;76.02
65040;HTU21D;51606;45.000;38.612;2023-02-11T09:50:34;1.10;76.01
65040;HTU21D;51606;45.000;38.612;2023-02-11T10:06:50;1.09;75.96
65040;HTU21D;51606;45.000;38.612;2023-02-11T10:15:00;0.68;76.61
65040;HTU21D;51606;45.000;38.612;2023-02-11T10:17:42;0.59;76.51
65040;HTU21D;51606;45.000;38.612;2023-02-11T10:23:04;0.35;76.34
65040;HTU21D;51606;45.000;38.612;2023-02-11T10:28:13;0.47;76.31
65040;HTU21D;51606;45.000;38.612;2023-02-11T10:30:51;0.57;76.20
65040;HTU21D;51606;45.000;38.612;2023-02-11T10:33:27;0.71;75.93
65040;HTU21D;51606;45.000;38.612;2023-02-11T10:35:54;0.83;75.72
65040;HTU21D;51606;45.000;38.612;2023-02-11T10:38:21;0.96;75.54
65040;HTU21D;51606;45.000;38.612;2023-02-11T10:40:47;1.06;75.44
65040;HTU21D;51606;45.000;38.612;2023-02-11T10:43:15;1.04;75.38
65040;HTU21D;51606;45.000;38.612;2023-02-11T10:45:52;1.02;75.52
65040;HTU21D;51606;45.000;38.612;2023-02-11T10:51:13;1.11;75.81
65040;HTU21D;51606;45.000;38.612;2023-02-11T10:53:40;1.34;75.58
65040;HTU21D;51606;45.000;38.612;2023-02-11T10:56:10;1.57;75.36
65040;HTU21D;51606;45.000;38.612;2023-02-11T10:58:43;1.83;75.14
65040;HTU21D;51606;45.000;38.612;2023-02-11T11:01:12;2.02;74.99
65040;HTU21D;51606;45.000;38.612;2023-02-11T11:03:46;2.14;74.97
65040;HTU21D;51606;45.000;38.612;2023-02-11T11:06:13;2.28;75.02
65040;HTU21D;51606;45.000;38.612;2023-02-11T11:08:45;2.42;75.02
65040;HTU21D;51606;45.000;38.612;2023-02-11T11:11:20;2.54;74.92
65040;HTU21D;51606;45.000;38.612;2023-02-11T11:16:29;2.64;75.08
65040;HTU21D;51606;45.000;38.612;2023-02-11T11:21:39;2.71;75.12
65040;HTU21D;51606;45.000;38.612;2023-02-11T11:24:28;2.70;75.26
65040;HTU21D;51606;45.000;38.612;2023-02-11T11:26:59;2.83;75.44
65040;HTU21D;51606;45.000;38.612;2023-02-11T11:29:36;2.87;75.28
65040;HTU21D;51606;45.000;38.612;2023-02-11T11:32:36;2.81;75.38
65040;HTU21D;51606;45.000;38.612;2023-02-11T11:35:07;2.68;75.50
65040;HTU21D;51606;45.000;38.612;2023-02-11T11:37:52;2.65;75.72
65040;HTU21D;51606;45.000;38.612;2023-02-11T11:40:25;2.65;75.63
65040;HTU21D;51606;45.000;38.612;2023-02-11T11:45:51;2.71;75.61
65040;HTU21D;51606;45.000;38.612;2023-02-11T11:48:44;2.83;75.61
65040;HTU21D;51606;45.000;38.612;2023-02-11T11:51:10;3.10;75.34
65040;HTU21D;51606;45.000;38.612;2023-02-11T11:53:57;3.30;75.08
65040;HTU21D;51606;45.000;38.612;2023-02-11T11:56:31;3.43;74.88
65040;HTU21D;51606;45.000;38.612;2023-02-11T11:59:05;3.46;74.91
65040;HTU21D;51606;45.000;38.612;2023-02-11T12:02:00;3.54;74.82
65040;HTU21D;51606;45.000;38.612;2023-02-11T12:12:45;2.94;75.54
65040;HTU21D;51606;45.000;38.612;2023-02-11T12:15:28;2.91;75.48
65040;HTU21D;51606;45.000;38.612;2023-02-11T12:18:15;3.01;75.53
65040;HTU21D;51606;45.000;38.612;2023-02-11T12:23:27;3.13;75.06
65040;HTU21D;51606;45.000;38.612;2023-02-11T12:26:18;3.14;74.89
65040;HTU21D;51606;45.000;38.612;2023-02-11T12:37:39;3.34;74.84
65040;HTU21D;51606;45.000;38.612;2023-02-11T12:40:28;3.41;74.70
65040;HTU21D;51606;45.000;38.612;2023-02-11T12:43:22;3.41;74.67
65040;HTU21D;51606;45.000;38.612;2023-02-11T12:46:07;3.34;74.53
65040;HTU21D;51606;45.000;38.612;2023-02-11T12:51:39;3.40;74.66
65040;HTU21D;51606;45.000;38.612;2023-02-11T12:54:44;3.42;74.67
65040;HTU21D;51606;45.000;38.612;2023-02-11T13:02:33;2.86;74.74
65040;HTU21D;51606;45.000;38.612;2023-02-11T13:07:44;2.08;75.86
65040;HTU21D;51606;45.000;38.612;2023-02-11T13:10:33;1.78;76.34
65040;HTU21D;51606;45.000;38.612;2023-02-11T13:13:04;1.57;76.65
65040;HTU21D;51606;45.000;38.612;2023-02-11T13:15:49;1.41;76.64
65040;HTU21D;51606;45.000;38.612;2023-02-11T13:24:14;0.79;76.79
65040;HTU21D;51606;45.000;38.612;2023-02-11T17:27:02;-4.94;76.90
65040;HTU21D;51606;45.000;38.612;2023-02-11T17:29:30;-4.95;76.95
65040;HTU21D;51606;45.000;38.612;2023-02-11T17:31:56;-4.94;76.87
65040;HTU21D;51606;45.000;38.612;2023-02-11T17:34:22;-4.93;76.81
65040;HTU21D;51606;45.000;38.612;2023-02-11T17:36:49;-4.89;76.73
65040;HTU21D;51606;45.000;38.612;2023-02-11T17:39:16;-4.86;76.60
65040;HTU21D;51606;45.000;38.612;2023-02-11T17:41:44;-4.82;76.50
65040;HTU21D;51606;45.000;38.612;2023-02-11T17:44:15;-4.81;76.36
65040;HTU21D;51606;45.000;38.612;2023-02-11T17:46:42;-4.81;76.31
65040;HTU21D;51606;45.000;38.612;2023-02-11T17:49:10;-4.82;76.32
65040;HTU21D;51606;45.000;38.612;2023-02-11T17:51:38;-4.83;76.28
65040;HTU21D;51606;45.000;38.612;2023-02-11T17:54:10;-4.87;76.35
65040;HTU21D;51606;45.000;38.612;2023-02-11T17:56:37;-4.90;76.40
65040;HTU21D;51606;45.000;38.612;2023-02-11T17:59:23;-4.96;76.34
65040;HTU21D;51606;45.000;38.612;2023-02-11T18:01:51;-4.99;76.44
65040;HTU21D;51606;45.000;38.612;2023-02-11T18:04:18;-5.01;76.52
65040;HTU21D;51606;45.000;38.612;2023-02-11T18:06:45;-5.02;76.51
65040;HTU21D;51606;45.000;38.612;2023-02-11T18:09:12;-5.03;76.55
65040;HTU21D;51606;45.000;38.612;2023-02-11T18:11:40;-5.00;76.51
65040;HTU21D;51606;45.000;38.612;2023-02-11T18:14:07;-5.01;76.44
65040;HTU21D;51606;45.000;38.612;2023-02-11T18:16:35;-5.04;76.45
65040;HTU21D;51606;45.000;38.612;2023-02-11T18:19:05;-5.09;76.51
65040;HTU21D;51606;45.000;38.612;2023-02-11T18:21:32;-5.13;76.54
65040;HTU21D;51606;45.000;38.612;2023-02-11T18:24:01;-5.11;76.60
65040;HTU21D;51606;45.000;38.612;2023-02-11T18:26:27;-5.12;76.59
65040;HTU21D;51606;45.000;38.612;2023-02-11T18:28:56;-5.12;76.60
65040;HTU21D;51606;45.000;38.612;2023-02-11T18:31:24;-5.13;76.56
65040;HTU21D;51606;45.000;38.612;2023-02-11T18:33:51;-5.14;76.60
65040;HTU21D;51606;45.000;38.612;2023-02-11T18:36:19;-5.14;76.65
65040;HTU21D;51606;45.000;38.612;2023-02-11T18:38:45;-5.16;76.64
65040;HTU21D;51606;45.000;38.612;2023-02-11T18:41:13;-5.18;76.65
65040;HTU21D;51606;45.000;38.612;2023-02-11T18:43:39;-5.23;76.70
65040;HTU21D;51606;45.000;38.612;2023-02-11T18:46:11;-5.27;76.68
65040;HTU21D;51606;45.000;38.612;2023-02-11T18:48:46;-5.31;76.78
65040;HTU21D;51606;45.000;38.612;2023-02-11T18:51:16;-5.35;76.89
65040;HTU21D;51606;45.000;38.612;2023-02-11T18:53:45;-5.38;76.91
65040;HTU21D;51606;45.000;38.612;2023-02-11T18:56:17;-5.42;76.86
65040;HTU21D;51606;45.000;38.612;2023-02-11T18:58:46;-5.48;76.92
65040;HTU21D;51606;45.000;38.612;2023-02-11T19:01:17;-5.53;76.98
65040;HTU21D;51606;45.000;38.612;2023-02-11T19:03:45;-5.57;77.07
65040;HTU21D;51606;45.000;38.612;2023-02-11T19:06:20;-5.62;77.05
65040;HTU21D;51606;45.000;38.612;2023-02-11T19:08:47;-5.67;77.10
65040;HTU21D;51606;45.000;38.612;2023-02-11T19:11:13;-5.71;77.21
65040;HTU21D;51606;45.000;38.612;2023-02-11T19:13:43;-5.74;77.20
65040;HTU21D;51606;45.000;38.612;2023-02-11T19:16:09;-5.79;77.18
65040;HTU21D;51606;45.000;38.612;2023-02-11T19:18:39;-5.85;77.24
65040;HTU21D;51606;45.000;38.612;2023-02-11T19:21:10;-5.89;77.24
65040;HTU21D;51606;45.000;38.612;2023-02-11T19:23:37;-5.96;77.26
65040;HTU21D;51606;45.000;38.612;2023-02-11T19:26:25;-6.06;77.33
65040;HTU21D;51606;45.000;38.612;2023-02-11T19:28:52;-6.14;77.40
65040;HTU21D;51606;45.000;38.612;2023-02-11T19:31:18;-6.22;77.52
65040;HTU21D;51606;45.000;38.612;2023-02-11T19:33:45;-6.32;77.53
65040;HTU21D;51606;45.000;38.612;2023-02-11T19:36:12;-6.42;77.60
65040;HTU21D;51606;45.000;38.612;2023-02-11T19:38:42;-6.53;77.72
65040;HTU21D;51606;45.000;38.612;2023-02-11T19:41:10;-6.63;77.79
65040;HTU21D;51606;45.000;38.612;2023-02-11T19:43:41;-6.71;77.88
65040;HTU21D;51606;45.000;38.612;2023-02-11T19:46:08;-6.80;77.86
65040;HTU21D;51606;45.000;38.612;2023-02-11T19:48:34;-6.88;77.86
65040;HTU21D;51606;45.000;38.612;2023-02-11T19:51:08;-6.95;77.83
65040;HTU21D;51606;45.000;38.612;2023-02-11T19:53:35;-7.04;77.89
65040;HTU21D;51606;45.000;38.612;2023-02-11T19:56:03;-7.09;77.92
65040;HTU21D;51606;45.000;38.612;2023-02-11T19:58:33;-7.16;77.98
65040;HTU21D;51606;45.000;38.612;2023-02-11T20:01:14;-7.22;77.94
65040;HTU21D;51606;45.000;38.612;2023-02-11T20:03:41;-7.31;77.95
65040;HTU21D;51606;45.000;38.612;2023-02-11T20:06:13;-7.36;77.93
65040;HTU21D;51606;45.000;38.612;2023-02-11T20:08:40;-7.45;78.00
65040;HTU21D;51606;45.000;38.612;2023-02-11T20:11:15;-7.50;78.04
65040;HTU21D;51606;45.000;38.612;2023-02-11T20:13:42;-7.56;78.05
65040;HTU21D;51606;45.000;38.612;2023-02-11T20:16:12;-7.62;78.00
65040;HTU21D;51606;45.000;38.612;2023-02-11T20:18:39;-7.67;78.00
65040;HTU21D;51606;45.000;38.612;2023-02-11T20:21:10;-7.66;77.95
65040;HTU21D;51606;45.000;38.612;2023-02-11T20:23:45;-7.68;77.90
65040;HTU21D;51606;45.000;38.612;2023-02-11T20:26:21;-7.69;77.85
65040;HTU21D;51606;45.000;38.612;2023-02-11T20:28:51;-7.72;77.86
65040;HTU21D;51606;45.000;38.612;2023-02-11T20:31:20;-7.77;77.88
65040;HTU21D;51606;45.000;38.612;2023-02-11T20:33:48;-7.78;77.85
65040;HTU21D;51606;45.000;38.612;2023-02-11T20:36:22;-7.80;77.82
65040;HTU21D;51606;45.000;38.612;2023-02-11T20:38:49;-7.80;77.80
65040;HTU21D;51606;45.000;38.612;2023-02-11T20:41:24;-7.79;77.71
65040;HTU21D;51606;45.000;38.612;2023-02-11T20:43:53;-7.79;77.72
65040;HTU21D;51606;45.000;38.612;2023-02-11T20:46:30;-7.78;77.67
65040;HTU21D;51606;45.000;38.612;2023-02-11T20:48:58;-7.77;77.73
65040;HTU21D;51606;45.000;38.612;2023-02-11T20:51:27;-7.72;77.68
65040;HTU21D;51606;45.000;38.612;2023-02-11T20:53:55;-7.70;77.62
65040;HTU21D;51606;45.000;38.612;2023-02-11T20:56:24;-7.67;77.60
65040;HTU21D;51606;45.000;38.612;2023-02-11T20:58:51;-7.67;77.58
65040;HTU21D;51606;45.000;38.612;2023-02-11T21:01:26;-7.66;77.59
65040;HTU21D;51606;45.000;38.612;2023-02-11T21:03:54;-7.67;77.61
65040;HTU21D;51606;45.000;38.612;2023-02-11T21:06:22;-7.66;77.63
65040;HTU21D;51606;45.000;38.612;2023-02-11T21:08:49;-7.67;77.69
65040;HTU21D;51606;45.000;38.612;2023-02-11T21:11:15;-7.69;77.67
65040;HTU21D;51606;45.000;38.612;2023-02-11T21:13:44;-7.71;77.74
65040;HTU21D;51606;45.000;38.612;2023-02-11T21:16:16;-7.76;77.76
65040;HTU21D;51606;45.000;38.612;2023-02-11T21:18:46;-7.80;77.86
65040;HTU21D;51606;45.000;38.612;2023-02-11T21:21:12;-7.83;77.84
65040;HTU21D;51606;45.000;38.612;2023-02-11T21:23:39;-7.89;77.88
65040;HTU21D;51606;45.000;38.612;2023-02-11T21:26:06;-7.92;77.99